Bookmark and Share
Track history (hours):
 

Mary Alice

More information available from US FCC via Universal Licensing System and Coast Guard Vessel Documentation Center.

Last reported at 2014-Apr-16 21:33 UTC. Time now 2014-Apr-16 22:30 UTC.
Position N 40°42' W 074°09'.

Length 21 m; draft 5 m.

Type: Towing. MMSI: 366744020.

NotesDate/timePositionNaut miles runAvg speedWind from/ knotsBaromVisibWave heightAir tempDewpointWater temp
2014-Apr-16 21:33N 40°42' W 074°09'0 0.0
2014-Apr-16 20:33N 40°42' W 074°09'0 0.0
2014-Apr-16 19:17N 40°42' W 074°09'0 0.0
2014-Apr-16 18:28N 40°42' W 074°09'0 0.0
2014-Apr-16 17:32N 40°42' W 074°09'0 0.0
2014-Apr-16 16:33N 40°42' W 074°09'0 0.0
2014-Apr-16 15:32N 40°42' W 074°09'0 0.0
2014-Apr-16 14:31N 40°42' W 074°09'0 0.0
2014-Apr-16 13:28N 40°42' W 074°09'0 0.0
2014-Apr-16 12:33N 40°42' W 074°09'0 0.0
2014-Apr-16 11:33N 40°42' W 074°09'0 0.0
2014-Apr-16 10:30N 40°42' W 074°09'0 0.0
2014-Apr-16 08:28N 40°42' W 074°09'0 0.0
2014-Apr-16 07:33N 40°42' W 074°09'0 0.0
2014-Apr-16 06:27N 40°42' W 074°09'0 0.0
2014-Apr-16 05:31N 40°42' W 074°09'0 0.0
2014-Apr-16 04:33N 40°42' W 074°09'0 0.0
2014-Apr-16 03:33N 40°42' W 074°09'0 0.0
2014-Apr-16 02:33N 40°42' W 074°09'0 0.0
2014-Apr-16 01:33N 40°42' W 074°09'0 0.0
2014-Apr-16 00:33N 40°42' W 074°09'0 0.0
2014-Apr-15 23:32N 40°42' W 074°09'0 0.0
2014-Apr-15 22:33N 40°42' W 074°09'0 0.0
2014-Apr-15 21:31N 40°42' W 074°09'0 0.0
2014-Apr-15 20:33N 40°42' W 074°09'0 0.0
2014-Apr-15 19:32N 40°42' W 074°09'0 0.0
2014-Apr-15 18:33N 40°42' W 074°09'0 0.0
2014-Apr-15 17:31N 40°42' W 074°09'0 0.0
2014-Apr-15 16:27N 40°42' W 074°09'0 0.0
2014-Apr-15 15:33N 40°42' W 074°09'0 0.0
2014-Apr-15 14:32N 40°42' W 074°09'0 0.0
2014-Apr-15 12:31N 40°42' W 074°09'0 0.0
2014-Apr-15 10:33N 40°42' W 074°09'0 0.0
2014-Apr-15 09:34N 40°42' W 074°09'0 0.0
2014-Apr-15 08:33N 40°42' W 074°09'0 0.0
2014-Apr-15 07:31N 40°42' W 074°09'0 0.0
2014-Apr-15 05:32N 40°42' W 074°09'0 0.0
2014-Apr-15 02:33N 40°42' W 074°09'0 0.0
2014-Apr-15 01:34N 40°42' W 074°09'0 0.0
2014-Apr-15 00:33N 40°42' W 074°09'4 0.6
2014-Apr-14 18:34N 40°39' W 074°07'0 0.0
2014-Apr-14 17:31N 40°39' W 074°07'0 0.0
2014-Apr-14 16:33N 40°39' W 074°07'0 0.0
2014-Apr-14 15:32N 40°39' W 074°07'4 0.9
2014-Apr-14 11:34N 40°42' W 074°09'0 0.0
2014-Apr-14 10:33N 40°42' W 074°09'0 0.0
2014-Apr-14 09:33N 40°42' W 074°09'0 0.0
2014-Apr-14 08:31N 40°42' W 074°09'0 0.0
2014-Apr-14 07:32N 40°42' W 074°09'0 0.0
2014-Apr-13 21:19N 40°42' W 074°09'0 0.0
2014-Apr-13 17:23N 40°42' W 074°09'0 0.1
2014-Apr-13 16:33N 40°42' W 074°09'1 1.4
2014-Apr-13 15:33N 40°40' W 074°08'10 5.1
2014-Apr-13 13:31N 40°30' W 074°12'6 6.7
2014-Apr-13 12:33N 40°29' W 074°04'7 7.1
2014-Apr-13 11:33N 40°26' W 073°55'2 1.6
2014-Apr-13 10:33N 40°26' W 073°53'6 6.3
2014-Apr-13 09:32N 40°29' W 073°60'6 5.9
2014-Apr-13 08:33N 40°30' W 074°07'1 0.6
2014-Apr-13 07:33N 40°30' W 074°08'0 0.2
2014-Apr-13 06:32N 40°30' W 074°08'0 0.0
2014-Apr-13 05:33N 40°30' W 074°08'0 0.0
2014-Apr-13 04:34N 40°30' W 074°08'0 0.0
2014-Apr-13 03:33N 40°30' W 074°08'0 0.0
2014-Apr-13 02:34N 40°30' W 074°08'4 4.4
2014-Apr-13 01:33N 40°29' W 074°02'6 6.4
2014-Apr-13 00:33N 40°26' W 073°55'1 0.5
2014-Apr-12 23:33N 40°26' W 073°54'6 5.7
2014-Apr-12 22:31N 40°29' W 074°01'5 5.1
2014-Apr-12 21:31N 40°30' W 074°08'0 0.4
2014-Apr-12 20:28N 40°30' W 074°07'0 0.4
2014-Apr-12 19:33N 40°30' W 074°08'0 0.4
2014-Apr-12 18:33N 40°30' W 074°07'0 0.0
2014-Apr-12 14:32N 40°30' W 074°07'0 0.0
2014-Apr-12 13:30N 40°30' W 074°07'0 0.0
2014-Apr-12 12:15N 40°30' W 074°07'0 0.0
2014-Apr-12 09:27N 40°30' W 074°07'0 0.0
2014-Apr-12 08:23N 40°30' W 074°07'0 0.0
2014-Apr-12 07:27N 40°30' W 074°07'12 3.9
2014-Apr-12 04:26N 40°25' W 073°53'8 6.8
2014-Apr-12 03:19N 40°28' W 074°02'4 5.0
2014-Apr-12 02:29N 40°30' W 074°07'0 0.3
2014-Apr-12 01:32N 40°30' W 074°07'0 0.0
2014-Apr-12 00:29N 40°30' W 074°07'0 0.0
2014-Apr-11 22:21N 40°30' W 074°07'2 0.8
2014-Apr-11 19:33N 40°30' W 074°05'7 7.5
2014-Apr-11 18:33N 40°38' W 074°04'5 4.6
2014-Apr-11 17:33N 40°41' W 074°08'0 0.4
2014-Apr-11 16:33N 40°41' W 074°08'1 1.3
2014-Apr-11 15:33N 40°40' W 074°09'3 2.7
2014-Apr-11 14:33N 40°39' W 074°05'9 6.1
2014-Apr-11 13:04N 40°30' W 074°03'4 4.5
2014-Apr-11 12:16N 40°30' W 074°07'1 1.6
2014-Apr-11 11:20N 40°29' W 074°06'11 6.4
2014-Apr-11 09:32N 40°24' W 073°52'6 6.4
2014-Apr-11 08:33N 40°29' W 073°59'7 6.5
2014-Apr-11 07:31N 40°30' W 074°07'0 0.3
2014-Apr-11 06:27N 40°30' W 074°07'0 0.4
2014-Apr-11 05:17N 40°30' W 074°06'0 0.1
2014-Apr-11 02:31N 40°30' W 074°06'6 6.1
2014-Apr-11 01:29N 40°29' W 074°14'7 6.7
2014-Apr-11 00:25N 40°36' W 074°12'6 6.9
2014-Apr-10 23:33N 40°41' W 074°08'3 2.9
2014-Apr-10 22:33N 40°39' W 074°08'3 3.2
2014-Apr-10 21:33N 40°42' W 074°09'0 0.2
2014-Apr-10 19:30N 40°42' W 074°09'0 0.2
2014-Apr-10 18:33N 40°42' W 074°09'0 0.2
2014-Apr-10 17:32N 40°42' W 074°09'0 0.3
2014-Apr-10 16:33N 40°42' W 074°09'0 0.5
2014-Apr-10 15:33N 40°41' W 074°08'0 0.1
2014-Apr-10 14:33N 40°41' W 074°08'1 0.7
2014-Apr-10 13:24N 40°42' W 074°09'0 0.2
2014-Apr-10 12:32N 40°42' W 074°09'0 0.0
2014-Apr-10 11:33N 40°42' W 074°09'0 0.2
2014-Apr-10 10:33N 40°42' W 074°09'0 0.0
2014-Apr-10 04:04N 40°42' W 074°09'0 0.0
2014-Apr-10 03:18N 40°42' W 074°09'0 0.0
2014-Apr-10 01:29N 40°42' W 074°09'0 0.0
2014-Apr-09 23:11N 40°42' W 074°09'0 0.5
2014-Apr-09 22:33N 40°42' W 074°09'0 0.0
2014-Apr-09 21:20N 40°42' W 074°09'1 0.7
2014-Apr-09 20:33N 40°41' W 074°08'1 0.7
2014-Apr-09 19:32N 40°42' W 074°09'0 0.1
2014-Apr-09 18:33N 40°42' W 074°09'0 0.0
2014-Apr-09 17:33N 40°42' W 074°09'0 0.0
2014-Apr-09 16:33N 40°42' W 074°09'0 0.0
2014-Apr-09 15:33N 40°42' W 074°09'0 0.4
2014-Apr-09 14:33N 40°42' W 074°08'0 0.0
2014-Apr-09 13:33N 40°42' W 074°08'0 0.0
2014-Apr-09 12:33N 40°42' W 074°08'0 0.0
2014-Apr-09 11:33N 40°42' W 074°08'0 0.1
2014-Apr-09 10:33N 40°41' W 074°08'0 0.0
2014-Apr-09 09:33N 40°41' W 074°08'0 0.0
2014-Apr-09 08:33N 40°41' W 074°08'0 0.0
2014-Apr-09 07:33N 40°41' W 074°08'0 0.0
2014-Apr-09 06:33N 40°41' W 074°08'0 0.0
2014-Apr-09 05:33N 40°41' W 074°08'0 0.0
2014-Apr-09 04:33N 40°41' W 074°08'0 0.0
2014-Apr-09 03:33N 40°41' W 074°08'0 0.0
2014-Apr-09 02:33N 40°41' W 074°08'0 0.0
2014-Apr-09 01:33N 40°41' W 074°08'0 0.0
2014-Apr-09 00:33N 40°41' W 074°08'0 0.4
2014-Apr-08 23:33N 40°41' W 074°08'0 0.3
2014-Apr-08 22:33N 40°41' W 074°09'1 1.0
2014-Apr-08 21:33N 40°40' W 074°09'1 1.2
2014-Apr-08 20:33N 40°41' W 074°08'1 1.4
2014-Apr-08 19:33N 40°42' W 074°09'0 0.0
2014-Apr-08 18:30N 40°42' W 074°09'0 0.1
2014-Apr-08 17:33N 40°42' W 074°09'0 0.0
2014-Apr-08 16:33N 40°42' W 074°09'0 0.1
2014-Apr-08 15:17N 40°42' W 074°09'0 0.1
2014-Apr-08 14:21N 40°42' W 074°09'0 0.0
2014-Apr-08 13:19N 40°42' W 074°09'1 0.9
2014-Apr-08 12:33N 40°42' W 074°08'0 0.0
2014-Apr-08 11:33N 40°42' W 074°08'3 2.9
2014-Apr-08 10:33N 40°39' W 074°09'5 5.5
2014-Apr-08 09:33N 40°41' W 074°02'  

Dump ship's entire track history

sailing weather and tide predictions

Mary Alice — WCX9570 — position and weather